NSN weather

Nelson Airport
Nelson, Nelson Region, New Zealand

Public forecast

Using degrees Celsius for public forecast. Weather courtesy of forecast.io.

METAR (pilot weather report)

Closest report is Wellington International Airport, 71.5 nm (132.3 km) E. Retrieved 2019/03/25 14:00 UTC (3 minutes ago):

NZWN 251400Z AUTO 35018KT 9999 SCT022/// 19/16 Q1022 NOSIG

TAF (pilot weather forecast)

Forecast is more than 12 hours old.

Closest forecast is Wellington International Airport, 71.5 nm (132.3 km) E. Retrieved 2019/03/25 00:11 UTC (14 hours ago):

TAF COR NZWN 250106Z 2500/2600 36020G30KT 9999 BKN025 TEMPO 2518/2600 6000 RADZ BKN014 BECMG 2520/2522 36025G40KT